createdAt,value
2023-04-20T00:00:48.182Z,215518.00
2023-04-20T00:06:52.175Z,215469.00
2023-04-20T00:12:54.693Z,215413.00
2023-04-20T00:18:57.165Z,215349.00
2023-04-20T00:24:59.572Z,215295.00
2023-04-20T00:31:02.041Z,215217.00
2023-04-20T00:37:04.575Z,215140.00
2023-04-20T00:43:14.026Z,215092.00
2023-04-20T00:49:17.009Z,215052.00
2023-04-20T00:55:20.916Z,215016.00
2023-04-20T01:01:23.956Z,214938.00
2023-04-20T01:07:26.283Z,214889.00
2023-04-20T01:13:28.713Z,214833.00
2023-04-20T01:19:31.151Z,214814.00
2023-04-20T01:25:33.569Z,214793.00
2023-04-20T01:31:36.107Z,214808.00
2023-04-20T01:37:39.806Z,214833.00
2023-04-20T01:43:42.167Z,214861.00
2023-04-20T01:49:44.579Z,214903.00
2023-04-20T01:55:46.901Z,214877.00
2023-04-20T02:01:49.271Z,214877.00
2023-04-20T02:07:51.846Z,214897.00
2023-04-20T02:13:54.262Z,214855.00
2023-04-20T02:19:56.531Z,214793.00
2023-04-20T02:25:58.791Z,214773.00
2023-04-20T02:32:01.176Z,214737.00
2023-04-20T02:38:03.686Z,214737.00
2023-04-20T02:44:06.222Z,214753.00
2023-04-20T02:50:11.939Z,214808.00
2023-04-20T02:56:32.214Z,214800.00
2023-04-20T03:02:39.953Z,214841.00
2023-04-20T03:08:43.187Z,214841.00
2023-04-20T03:15:08.633Z,214841.00
2023-04-20T03:21:33.940Z,214841.00
2023-04-20T03:27:36.556Z,214875.00
2023-04-20T03:33:46.317Z,214889.00
2023-04-20T03:39:48.606Z,214938.00
2023-04-20T03:45:51.110Z,214980.00
2023-04-20T03:51:55.076Z,215030.00
2023-04-20T03:57:58.322Z,215030.00
2023-04-20T04:04:03.790Z,215092.00
2023-04-20T04:10:08.457Z,215154.00
2023-04-20T04:16:11.073Z,215182.00
2023-04-20T04:22:13.375Z,215217.00
2023-04-20T04:28:28.595Z,215217.00
2023-04-20T04:34:41.009Z,215295.00
2023-04-20T04:40:46.162Z,215385.00
2023-04-20T04:46:49.021Z,215510.00
2023-04-20T04:52:54.672Z,215552.00
2023-04-20T04:58:57.041Z,215656.00
2023-04-20T05:04:59.587Z,215777.00
2023-04-20T05:11:01.995Z,215945.00
2023-04-20T05:17:05.164Z,216163.00
2023-04-20T05:23:07.467Z,216240.00
2023-04-20T05:29:10.200Z,216361.00
2023-04-20T05:35:12.799Z,216529.00
2023-04-20T05:41:15.113Z,216458.00
2023-04-20T05:47:17.313Z,216400.00
2023-04-20T05:53:19.770Z,216400.00
2023-04-20T05:59:22.412Z,216420.00
2023-04-20T06:05:24.734Z,216485.00
2023-04-20T06:11:26.984Z,216563.00
2023-04-20T06:17:29.340Z,216653.00
2023-04-20T06:23:31.580Z,216675.00
2023-04-20T06:29:33.861Z,216697.00
2023-04-20T06:35:36.373Z,216761.00
2023-04-20T06:41:41.565Z,216705.00
2023-04-20T06:47:43.728Z,216719.00
2023-04-20T06:53:45.866Z,216613.00
2023-04-20T06:59:48.120Z,216669.00
2023-04-20T07:05:50.409Z,216626.00
2023-04-20T07:11:52.566Z,216599.00
2023-04-20T07:17:54.855Z,216585.00
2023-04-20T07:23:59.428Z,216761.00
2023-04-20T07:30:02.302Z,216956.00
2023-04-20T07:36:05.160Z,217030.00
2023-04-20T07:42:07.458Z,217113.00
2023-04-20T07:48:10.141Z,217057.00
2023-04-20T07:54:12.293Z,217000.00
2023-04-20T08:00:15.629Z,216956.00
2023-04-20T08:06:21.083Z,217000.00
2023-04-20T08:12:24.172Z,217079.00
2023-04-20T08:18:26.757Z,217263.00
2023-04-20T08:24:29.743Z,217576.00
2023-04-20T08:30:32.144Z,218531.00
2023-04-20T08:36:34.651Z,218573.00
2023-04-20T08:42:37.282Z,218272.00
2023-04-20T08:48:42.153Z,218138.00
2023-04-20T09:00:49.946Z,217633.00
2023-04-20T09:06:56.795Z,217610.00
2023-04-20T09:12:59.218Z,217538.00
2023-04-20T09:19:01.919Z,217398.00
2023-04-20T09:25:13.994Z,217475.00
2023-04-20T09:31:23.225Z,217433.00
2023-04-20T09:37:26.088Z,217488.00
2023-04-20T09:43:29.037Z,217482.00
2023-04-20T09:49:31.888Z,217538.00
2023-04-20T09:55:34.539Z,217510.00
2023-04-20T10:01:38.462Z,217659.00
2023-04-20T10:07:40.960Z,217760.00
2023-04-20T10:13:43.333Z,217895.00
2023-04-20T10:19:46.507Z,217825.00
2023-04-20T10:26:01.306Z,217897.00
2023-04-20T10:32:03.594Z,218023.00
2023-04-20T10:38:06.121Z,218174.00
2023-04-20T10:44:09.579Z,218330.00
2023-04-20T10:50:16.162Z,218466.00
2023-04-20T10:56:18.418Z,218501.00
2023-04-20T11:02:21.509Z,218617.00
2023-04-20T11:08:24.076Z,219046.00
2023-04-20T11:14:26.565Z,219097.00
2023-04-20T11:20:28.701Z,219341.00
2023-04-20T11:26:43.904Z,219349.00
2023-04-20T11:32:55.052Z,219414.00
2023-04-20T11:39:08.749Z,219313.00
2023-04-20T11:45:12.137Z,219220.00
2023-04-20T11:51:15.084Z,219341.00
2023-04-20T11:57:17.574Z,219400.00
2023-04-20T12:03:20.024Z,219474.00
2023-04-20T12:09:22.640Z,219673.00
2023-04-20T12:15:24.930Z,219804.00
2023-04-20T12:21:27.941Z,220174.00
2023-04-20T12:27:30.515Z,220392.00
2023-04-20T12:33:32.984Z,220536.00
2023-04-20T12:39:35.282Z,220294.00
2023-04-20T12:45:37.668Z,220085.00
2023-04-20T12:51:39.875Z,220049.00
2023-04-20T12:57:42.153Z,220130.00
2023-04-20T13:03:44.619Z,220405.00
2023-04-20T13:09:47.299Z,224519.00
2023-04-20T13:15:49.596Z,223182.00
2023-04-20T13:21:51.873Z,223299.00
2023-04-20T13:27:55.358Z,222913.00
2023-04-20T13:33:57.709Z,221381.00
2023-04-20T13:40:00.700Z,220849.00
2023-04-20T13:46:02.876Z,220550.00
2023-04-20T13:52:05.389Z,220158.00
2023-04-20T13:58:07.924Z,219986.00
2023-04-20T14:04:10.521Z,220196.00
2023-04-20T14:10:13.101Z,220130.00
2023-04-20T14:16:15.435Z,220210.00
2023-04-20T14:22:17.846Z,220218.00
2023-04-20T14:28:20.257Z,220261.00
2023-04-20T14:34:22.964Z,220294.00
2023-04-20T14:40:25.418Z,220144.00
2023-04-20T14:46:28.604Z,219564.00
2023-04-20T14:52:31.226Z,218961.00
2023-04-20T14:58:33.772Z,218458.00
2023-04-20T15:04:36.583Z,218302.00
2023-04-20T15:10:39.662Z,218088.00
2023-04-20T15:16:41.986Z,217979.00
2023-04-20T15:22:44.406Z,217935.00
2023-04-20T15:28:46.719Z,217817.00
2023-04-20T15:34:49.164Z,217708.00
2023-04-20T15:40:54.495Z,217694.00
2023-04-20T15:46:58.631Z,217488.00
2023-04-20T15:53:01.445Z,217340.00
2023-04-20T15:59:03.729Z,217219.00
2023-04-20T16:05:10.045Z,217129.00
2023-04-20T16:11:12.608Z,216978.00
2023-04-20T16:17:14.932Z,216890.00
2023-04-20T16:23:17.332Z,216916.00
2023-04-20T16:29:19.597Z,216840.00
2023-04-20T16:35:22.462Z,216802.00
2023-04-20T16:41:26.228Z,216683.00
2023-04-20T16:47:28.867Z,216628.00
2023-04-20T16:53:31.654Z,216577.00
2023-04-20T16:59:34.093Z,216563.00
2023-04-20T17:05:41.699Z,216515.00
2023-04-20T17:11:44.795Z,216535.00
2023-04-20T17:17:47.257Z,216472.00
2023-04-20T17:23:50.318Z,216472.00
2023-04-20T17:29:52.819Z,216353.00
2023-04-20T17:35:57.485Z,216392.00
2023-04-20T17:41:59.977Z,216414.00
2023-04-20T17:48:02.287Z,216392.00
2023-04-20T17:54:05.477Z,216326.00
2023-04-20T18:00:09.665Z,216254.00
2023-04-20T18:06:15.178Z,216224.00
2023-04-20T18:12:18.191Z,216224.00
2023-04-20T18:18:22.185Z,216106.00
2023-04-20T18:24:24.746Z,216050.00
2023-04-20T18:30:27.094Z,216037.00
2023-04-20T18:36:30.327Z,216001.00
2023-04-20T18:42:32.804Z,216015.00
2023-04-20T18:48:35.308Z,216001.00
2023-04-20T18:54:38.844Z,216035.00
2023-04-20T19:00:41.410Z,216035.00
2023-04-20T19:06:47.328Z,216015.00
2023-04-20T19:12:49.554Z,216001.00
2023-04-20T19:18:52.501Z,215987.00
2023-04-20T19:24:57.125Z,215951.00
2023-04-20T19:31:00.278Z,215915.00
2023-04-20T19:37:02.826Z,215888.00
2023-04-20T19:43:05.144Z,215888.00
2023-04-20T19:49:07.713Z,215847.00
2023-04-20T19:55:11.111Z,215866.00
2023-04-20T20:01:13.621Z,215847.00
2023-04-20T20:07:17.635Z,215833.00
2023-04-20T20:13:20.020Z,215777.00
2023-04-20T20:19:22.500Z,215769.00
2023-04-20T20:25:25.279Z,215777.00
2023-04-20T20:31:27.610Z,215756.00
2023-04-20T20:37:35.119Z,215742.00
2023-04-20T20:43:37.959Z,215728.00
2023-04-20T20:49:40.134Z,215734.00
2023-04-20T20:55:42.404Z,215714.00
2023-04-20T21:01:45.178Z,215656.00
2023-04-20T21:07:47.755Z,215642.00
2023-04-20T21:13:50.214Z,215568.00
2023-04-20T21:19:52.749Z,215552.00
2023-04-20T21:25:55.072Z,215546.00
2023-04-20T21:31:57.429Z,215518.00
2023-04-20T21:37:59.911Z,215532.00
2023-04-20T21:44:03.048Z,215532.00
2023-04-20T21:50:05.618Z,215532.00
2023-04-20T21:56:07.909Z,215532.00
2023-04-20T22:02:10.441Z,215518.00
2023-04-20T22:08:14.935Z,215489.00
2023-04-20T22:14:17.603Z,215469.00
2023-04-20T22:20:20.135Z,215441.00
2023-04-20T22:26:22.512Z,215427.00
2023-04-20T22:32:25.860Z,215441.00
2023-04-20T22:38:28.293Z,215477.00
2023-04-20T22:44:33.837Z,215510.00
2023-04-20T22:50:36.123Z,215532.00
2023-04-20T22:56:38.624Z,215510.00
2023-04-20T23:02:41.737Z,215518.00
2023-04-20T23:08:44.092Z,215518.00
2023-04-20T23:14:46.944Z,215496.00
2023-04-20T23:20:49.427Z,215477.00
2023-04-20T23:26:51.938Z,215489.00
2023-04-20T23:32:54.267Z,215469.00
2023-04-20T23:38:56.747Z,215477.00
2023-04-20T23:44:59.216Z,215510.00
2023-04-20T23:51:02.217Z,215477.00
2023-04-20T23:57:04.735Z,215455.00
